sensor_id;sensor_type;location;lat;lon;timestamp;temperature;humidity
59923;DHT22;45778;51.142;3.732;2023-04-05T00:01:29;3.70;99.90
59923;DHT22;45778;51.142;3.732;2023-04-05T00:03:56;3.70;99.90
59923;DHT22;45778;51.142;3.732;2023-04-05T00:06:26;3.60;99.90
59923;DHT22;45778;51.142;3.732;2023-04-05T00:09:00;3.60;99.90
59923;DHT22;45778;51.142;3.732;2023-04-05T00:11:27;3.60;99.90
59923;DHT22;45778;51.142;3.732;2023-04-05T00:13:54;3.70;99.90
59923;DHT22;45778;51.142;3.732;2023-04-05T00:16:20;3.60;99.90
59923;DHT22;45778;51.142;3.732;2023-04-05T00:18:46;3.60;99.90
59923;DHT22;45778;51.142;3.732;2023-04-05T00:21:20;3.70;99.90
59923;DHT22;45778;51.142;3.732;2023-04-05T00:23:54;3.70;99.90
59923;DHT22;45778;51.142;3.732;2023-04-05T00:26:21;3.70;99.90
59923;DHT22;45778;51.142;3.732;2023-04-05T00:28:48;3.60;99.90
59923;DHT22;45778;51.142;3.732;2023-04-05T00:31:14;3.70;99.90
59923;DHT22;45778;51.142;3.732;2023-04-05T00:33:40;3.60;99.90
59923;DHT22;45778;51.142;3.732;2023-04-05T00:36:18;3.60;99.90
59923;DHT22;45778;51.142;3.732;2023-04-05T00:38:45;3.50;99.90
59923;DHT22;45778;51.142;3.732;2023-04-05T00:41:11;3.40;99.90
59923;DHT22;45778;51.142;3.732;2023-04-05T00:43:37;3.30;99.90
59923;DHT22;45778;51.142;3.732;2023-04-05T00:46:07;3.30;99.90
59923;DHT22;45778;51.142;3.732;2023-04-05T00:48:34;3.30;99.90
59923;DHT22;45778;51.142;3.732;2023-04-05T00:51:00;3.30;99.90
59923;DHT22;45778;51.142;3.732;2023-04-05T00:53:26;3.30;99.90
59923;DHT22;45778;51.142;3.732;2023-04-05T00:55:52;3.30;99.90
59923;DHT22;45778;51.142;3.732;2023-04-05T00:58:19;3.20;99.90
59923;DHT22;45778;51.142;3.732;2023-04-05T01:01:18;3.20;99.90
59923;DHT22;45778;51.142;3.732;2023-04-05T01:03:56;3.10;99.90
59923;DHT22;45778;51.142;3.732;2023-04-05T01:06:46;3.20;99.90
59923;DHT22;45778;51.142;3.732;2023-04-05T01:09:40;3.20;99.90
59923;DHT22;45778;51.142;3.732;2023-04-05T01:12:09;3.30;99.90
59923;DHT22;45778;51.142;3.732;2023-04-05T01:14:47;3.30;99.90
59923;DHT22;45778;51.142;3.732;2023-04-05T01:17:18;3.20;99.90
59923;DHT22;45778;51.142;3.732;2023-04-05T01:19:56;3.10;99.90
59923;DHT22;45778;51.142;3.732;2023-04-05T01:28:03;3.10;99.90
59923;DHT22;45778;51.142;3.732;2023-04-05T01:30:38;3.10;99.90
59923;DHT22;45778;51.142;3.732;2023-04-05T01:36:30;3.00;99.90
59923;DHT22;45778;51.142;3.732;2023-04-05T01:38:29;3.00;99.90
59923;DHT22;45778;51.142;3.732;2023-04-05T01:40:56;3.00;99.90
59923;DHT22;45778;51.142;3.732;2023-04-05T01:43:22;3.10;99.90
59923;DHT22;45778;51.142;3.732;2023-04-05T01:45:48;3.00;99.90
59923;DHT22;45778;51.142;3.732;2023-04-05T01:48:14;2.80;99.90
59923;DHT22;45778;51.142;3.732;2023-04-05T01:50:40;2.80;99.90
59923;DHT22;45778;51.142;3.732;2023-04-05T01:53:08;3.00;99.90
59923;DHT22;45778;51.142;3.732;2023-04-05T01:55:34;2.70;99.90
59923;DHT22;45778;51.142;3.732;2023-04-05T01:58:00;2.70;99.90
59923;DHT22;45778;51.142;3.732;2023-04-05T02:00:26;2.80;99.90
59923;DHT22;45778;51.142;3.732;2023-04-05T02:02:52;2.70;99.90
59923;DHT22;45778;51.142;3.732;2023-04-05T02:05:18;2.80;99.90
59923;DHT22;45778;51.142;3.732;2023-04-05T02:07:43;2.80;99.90
59923;DHT22;45778;51.142;3.732;2023-04-05T02:10:09;2.90;99.90
59923;DHT22;45778;51.142;3.732;2023-04-05T02:12:35;2.80;99.90
59923;DHT22;45778;51.142;3.732;2023-04-05T02:15:00;2.90;99.90
59923;DHT22;45778;51.142;3.732;2023-04-05T02:17:26;2.80;99.90
59923;DHT22;45778;51.142;3.732;2023-04-05T02:20:01;2.90;99.90
59923;DHT22;45778;51.142;3.732;2023-04-05T02:22:27;2.80;99.90
59923;DHT22;45778;51.142;3.732;2023-04-05T02:24:54;2.70;99.90
59923;DHT22;45778;51.142;3.732;2023-04-05T02:27:20;2.70;99.90
59923;DHT22;45778;51.142;3.732;2023-04-05T02:29:45;2.60;99.90
59923;DHT22;45778;51.142;3.732;2023-04-05T02:32:11;2.60;99.90
59923;DHT22;45778;51.142;3.732;2023-04-05T02:34:37;2.60;99.90
59923;DHT22;45778;51.142;3.732;2023-04-05T02:37:06;2.60;99.90
59923;DHT22;45778;51.142;3.732;2023-04-05T02:39:31;2.50;99.90
59923;DHT22;45778;51.142;3.732;2023-04-05T02:41:57;2.50;99.90
59923;DHT22;45778;51.142;3.732;2023-04-05T02:44:23;2.50;99.90
59923;DHT22;45778;51.142;3.732;2023-04-05T02:46:49;2.40;99.90
59923;DHT22;45778;51.142;3.732;2023-04-05T02:49:15;2.40;99.90
59923;DHT22;45778;51.142;3.732;2023-04-05T02:51:41;2.40;99.90
59923;DHT22;45778;51.142;3.732;2023-04-05T02:54:06;2.30;99.90
59923;DHT22;45778;51.142;3.732;2023-04-05T02:56:32;2.40;99.90
59923;DHT22;45778;51.142;3.732;2023-04-05T02:58:57;2.40;99.90
59923;DHT22;45778;51.142;3.732;2023-04-05T03:01:23;2.30;99.90
59923;DHT22;45778;51.142;3.732;2023-04-05T03:03:49;2.30;99.90
59923;DHT22;45778;51.142;3.732;2023-04-05T03:06:15;2.20;99.90
59923;DHT22;45778;51.142;3.732;2023-04-05T03:08:41;2.20;99.90
59923;DHT22;45778;51.142;3.732;2023-04-05T03:11:11;2.30;99.90
59923;DHT22;45778;51.142;3.732;2023-04-05T03:13:37;2.20;99.90
59923;DHT22;45778;51.142;3.732;2023-04-05T03:16:03;2.20;99.90
59923;DHT22;45778;51.142;3.732;2023-04-05T03:18:30;2.20;99.90
59923;DHT22;45778;51.142;3.732;2023-04-05T03:20:57;2.30;99.90
59923;DHT22;45778;51.142;3.732;2023-04-05T03:23:24;2.30;99.90
59923;DHT22;45778;51.142;3.732;2023-04-05T03:26:02;2.30;99.90
59923;DHT22;45778;51.142;3.732;2023-04-05T03:28:29;2.40;99.90
59923;DHT22;45778;51.142;3.732;2023-04-05T03:30:57;2.60;99.90
59923;DHT22;45778;51.142;3.732;2023-04-05T03:33:23;2.40;99.90
59923;DHT22;45778;51.142;3.732;2023-04-05T03:35:49;2.10;99.90
59923;DHT22;45778;51.142;3.732;2023-04-05T03:38:15;2.00;99.90
59923;DHT22;45778;51.142;3.732;2023-04-05T03:40:41;2.00;99.90
59923;DHT22;45778;51.142;3.732;2023-04-05T03:43:06;2.00;99.90
59923;DHT22;45778;51.142;3.732;2023-04-05T03:45:32;2.20;99.90
59923;DHT22;45778;51.142;3.732;2023-04-05T03:47:58;1.90;99.90
59923;DHT22;45778;51.142;3.732;2023-04-05T03:50:25;1.80;99.90
59923;DHT22;45778;51.142;3.732;2023-04-05T03:52:53;1.90;99.90
59923;DHT22;45778;51.142;3.732;2023-04-05T03:55:19;1.90;99.90
59923;DHT22;45778;51.142;3.732;2023-04-05T03:57:45;1.90;99.90
59923;DHT22;45778;51.142;3.732;2023-04-05T04:00:11;1.90;99.90
59923;DHT22;45778;51.142;3.732;2023-04-05T04:02:46;1.90;99.90
59923;DHT22;45778;51.142;3.732;2023-04-05T04:05:13;1.90;99.90
59923;DHT22;45778;51.142;3.732;2023-04-05T04:07:41;1.90;99.90
59923;DHT22;45778;51.142;3.732;2023-04-05T04:10:08;1.90;99.90
59923;DHT22;45778;51.142;3.732;2023-04-05T04:12:34;1.90;99.90
59923;DHT22;45778;51.142;3.732;2023-04-05T04:15:00;1.80;99.90
59923;DHT22;45778;51.142;3.732;2023-04-05T04:19:52;1.80;99.90
59923;DHT22;45778;51.142;3.732;2023-04-05T04:22:18;1.80;99.90
59923;DHT22;45778;51.142;3.732;2023-04-05T04:24:45;1.80;99.90
59923;DHT22;45778;51.142;3.732;2023-04-05T04:27:14;1.90;99.90
59923;DHT22;45778;51.142;3.732;2023-04-05T04:29:41;1.80;99.90
59923;DHT22;45778;51.142;3.732;2023-04-05T04:32:11;1.80;99.90
59923;DHT22;45778;51.142;3.732;2023-04-05T04:34:37;1.80;99.90
59923;DHT22;45778;51.142;3.732;2023-04-05T04:37:15;1.80;99.90
59923;DHT22;45778;51.142;3.732;2023-04-05T04:39:47;1.80;99.90
59923;DHT22;45778;51.142;3.732;2023-04-05T04:42:16;1.90;99.90
59923;DHT22;45778;51.142;3.732;2023-04-05T04:44:47;1.90;99.90
59923;DHT22;45778;51.142;3.732;2023-04-05T04:47:14;1.90;99.90
59923;DHT22;45778;51.142;3.732;2023-04-05T04:49:46;1.90;99.90
59923;DHT22;45778;51.142;3.732;2023-04-05T04:52:11;1.90;99.90
59923;DHT22;45778;51.142;3.732;2023-04-05T04:54:37;1.80;99.90
59923;DHT22;45778;51.142;3.732;2023-04-05T04:57:06;1.80;99.90
59923;DHT22;45778;51.142;3.732;2023-04-05T04:59:32;1.60;99.90
59923;DHT22;45778;51.142;3.732;2023-04-05T05:01:57;1.50;99.90
59923;DHT22;45778;51.142;3.732;2023-04-05T05:04:23;1.50;99.90
59923;DHT22;45778;51.142;3.732;2023-04-05T05:06:51;1.70;99.90
59923;DHT22;45778;51.142;3.732;2023-04-05T05:09:17;1.50;99.90
59923;DHT22;45778;51.142;3.732;2023-04-05T05:11:42;1.60;99.90
59923;DHT22;45778;51.142;3.732;2023-04-05T05:14:08;1.60;99.90
59923;DHT22;45778;51.142;3.732;2023-04-05T05:16:33;1.60;99.90
59923;DHT22;45778;51.142;3.732;2023-04-05T05:18:59;1.60;99.90
59923;DHT22;45778;51.142;3.732;2023-04-05T05:21:25;1.80;99.90
59923;DHT22;45778;51.142;3.732;2023-04-05T05:23:52;1.50;99.90
59923;DHT22;45778;51.142;3.732;2023-04-05T05:26:18;1.60;99.90
59923;DHT22;45778;51.142;3.732;2023-04-05T05:28:43;1.60;99.90
59923;DHT22;45778;51.142;3.732;2023-04-05T05:31:10;1.70;99.90
59923;DHT22;45778;51.142;3.732;2023-04-05T05:33:36;1.70;99.90
59923;DHT22;45778;51.142;3.732;2023-04-05T05:36:02;1.70;99.90
59923;DHT22;45778;51.142;3.732;2023-04-05T05:38:28;1.80;99.90
59923;DHT22;45778;51.142;3.732;2023-04-05T05:40:55;1.80;99.90
59923;DHT22;45778;51.142;3.732;2023-04-05T05:43:21;1.80;99.90
59923;DHT22;45778;51.142;3.732;2023-04-05T05:45:47;1.90;99.90
59923;DHT22;45778;51.142;3.732;2023-04-05T05:48:13;1.90;99.90
59923;DHT22;45778;51.142;3.732;2023-04-05T05:50:38;2.00;99.90
59923;DHT22;45778;51.142;3.732;2023-04-05T05:53:04;2.10;99.90
59923;DHT22;45778;51.142;3.732;2023-04-05T05:55:30;2.20;99.90
59923;DHT22;45778;51.142;3.732;2023-04-05T05:57:56;2.20;99.90
59923;DHT22;45778;51.142;3.732;2023-04-05T06:00:22;2.30;99.90
59923;DHT22;45778;51.142;3.732;2023-04-05T06:02:48;2.50;99.90
59923;DHT22;45778;51.142;3.732;2023-04-05T06:05:14;2.60;99.90
59923;DHT22;45778;51.142;3.732;2023-04-05T06:07:40;2.50;99.90
59923;DHT22;45778;51.142;3.732;2023-04-05T06:10:06;2.70;99.90
59923;DHT22;45778;51.142;3.732;2023-04-05T06:12:32;2.70;99.90
59923;DHT22;45778;51.142;3.732;2023-04-05T06:14:59;2.70;99.90
59923;DHT22;45778;51.142;3.732;2023-04-05T06:17:24;2.70;99.90
59923;DHT22;45778;51.142;3.732;2023-04-05T06:19:50;2.90;99.90
59923;DHT22;45778;51.142;3.732;2023-04-05T06:22:16;3.00;99.90
59923;DHT22;45778;51.142;3.732;2023-04-05T06:24:42;3.00;99.90
59923;DHT22;45778;51.142;3.732;2023-04-05T06:27:08;3.20;99.90
59923;DHT22;45778;51.142;3.732;2023-04-05T06:29:34;3.30;99.90
59923;DHT22;45778;51.142;3.732;2023-04-05T06:31:59;3.50;99.90
59923;DHT22;45778;51.142;3.732;2023-04-05T06:34:25;3.60;99.90
59923;DHT22;45778;51.142;3.732;2023-04-05T06:36:51;3.50;99.90
59923;DHT22;45778;51.142;3.732;2023-04-05T06:39:17;3.60;99.90
59923;DHT22;45778;51.142;3.732;2023-04-05T06:41:43;3.70;99.90
59923;DHT22;45778;51.142;3.732;2023-04-05T06:44:08;3.70;99.90
59923;DHT22;45778;51.142;3.732;2023-04-05T06:46:34;3.60;99.90
59923;DHT22;45778;51.142;3.732;2023-04-05T06:49:00;3.80;99.90
59923;DHT22;45778;51.142;3.732;2023-04-05T06:51:25;3.90;99.90
59923;DHT22;45778;51.142;3.732;2023-04-05T06:53:53;4.10;99.90
59923;DHT22;45778;51.142;3.732;2023-04-05T06:56:19;4.20;99.90
59923;DHT22;45778;51.142;3.732;2023-04-05T06:58:46;4.20;99.90
59923;DHT22;45778;51.142;3.732;2023-04-05T07:01:11;4.40;99.90
59923;DHT22;45778;51.142;3.732;2023-04-05T07:03:37;4.60;99.90
59923;DHT22;45778;51.142;3.732;2023-04-05T07:06:03;4.70;99.90
59923;DHT22;45778;51.142;3.732;2023-04-05T07:08:31;5.00;99.90
59923;DHT22;45778;51.142;3.732;2023-04-05T07:10:57;5.10;99.90
59923;DHT22;45778;51.142;3.732;2023-04-05T07:13:23;5.30;99.90
59923;DHT22;45778;51.142;3.732;2023-04-05T07:15:50;5.40;99.90
59923;DHT22;45778;51.142;3.732;2023-04-05T07:18:16;5.50;99.90
59923;DHT22;45778;51.142;3.732;2023-04-05T07:20:45;5.70;99.90
59923;DHT22;45778;51.142;3.732;2023-04-05T07:23:11;5.80;99.90
59923;DHT22;45778;51.142;3.732;2023-04-05T07:25:39;6.00;99.90
59923;DHT22;45778;51.142;3.732;2023-04-05T07:28:04;6.20;99.90
59923;DHT22;45778;51.142;3.732;2023-04-05T07:30:30;6.50;99.90
59923;DHT22;45778;51.142;3.732;2023-04-05T07:32:56;6.60;99.90
59923;DHT22;45778;51.142;3.732;2023-04-05T07:35:23;6.50;99.90
59923;DHT22;45778;51.142;3.732;2023-04-05T07:37:49;6.70;99.90
59923;DHT22;45778;51.142;3.732;2023-04-05T07:40:14;6.90;99.90
59923;DHT22;45778;51.142;3.732;2023-04-05T07:42:40;7.20;99.90
59923;DHT22;45778;51.142;3.732;2023-04-05T07:45:06;7.30;99.90
59923;DHT22;45778;51.142;3.732;2023-04-05T07:47:33;7.30;99.90
59923;DHT22;45778;51.142;3.732;2023-04-05T07:49:59;7.20;99.90
59923;DHT22;45778;51.142;3.732;2023-04-05T07:52:25;7.30;99.90
59923;DHT22;45778;51.142;3.732;2023-04-05T07:54:51;7.30;99.90
59923;DHT22;45778;51.142;3.732;2023-04-05T07:57:20;7.40;99.90
59923;DHT22;45778;51.142;3.732;2023-04-05T07:59:47;7.60;99.90
59923;DHT22;45778;51.142;3.732;2023-04-05T08:02:15;7.70;99.90
59923;DHT22;45778;51.142;3.732;2023-04-05T08:04:41;7.80;99.90
59923;DHT22;45778;51.142;3.732;2023-04-05T08:07:07;7.90;99.90
59923;DHT22;45778;51.142;3.732;2023-04-05T08:09:33;8.00;99.90
59923;DHT22;45778;51.142;3.732;2023-04-05T08:11:59;8.20;99.90
59923;DHT22;45778;51.142;3.732;2023-04-05T08:14:27;8.30;99.90
59923;DHT22;45778;51.142;3.732;2023-04-05T08:16:53;8.60;99.90
59923;DHT22;45778;51.142;3.732;2023-04-05T08:19:18;8.60;99.90
59923;DHT22;45778;51.142;3.732;2023-04-05T08:21:44;8.70;99.90
59923;DHT22;45778;51.142;3.732;2023-04-05T08:24:10;8.80;99.90
59923;DHT22;45778;51.142;3.732;2023-04-05T08:26:35;9.00;99.90
59923;DHT22;45778;51.142;3.732;2023-04-05T08:29:01;9.40;99.90
59923;DHT22;45778;51.142;3.732;2023-04-05T08:31:27;9.40;99.90
59923;DHT22;45778;51.142;3.732;2023-04-05T08:33:53;9.30;97.40
59923;DHT22;45778;51.142;3.732;2023-04-05T08:36:18;9.20;97.90
59923;DHT22;45778;51.142;3.732;2023-04-05T08:38:44;9.30;98.70
59923;DHT22;45778;51.142;3.732;2023-04-05T08:41:21;9.40;97.20
59923;DHT22;45778;51.142;3.732;2023-04-05T08:43:57;9.50;97.00
59923;DHT22;45778;51.142;3.732;2023-04-05T08:46:24;9.60;95.70
59923;DHT22;45778;51.142;3.732;2023-04-05T08:48:51;9.70;95.20
59923;DHT22;45778;51.142;3.732;2023-04-05T08:51:21;9.80;94.50
59923;DHT22;45778;51.142;3.732;2023-04-05T08:53:48;10.00;93.00
59923;DHT22;45778;51.142;3.732;2023-04-05T08:56:24;10.10;92.20
59923;DHT22;45778;51.142;3.732;2023-04-05T08:58:57;10.10;91.90
59923;DHT22;45778;51.142;3.732;2023-04-05T09:01:28;10.10;91.10
59923;DHT22;45778;51.142;3.732;2023-04-05T09:03:53;10.30;90.40
59923;DHT22;45778;51.142;3.732;2023-04-05T09:06:21;10.10;88.60
59923;DHT22;45778;51.142;3.732;2023-04-05T09:08:47;10.10;87.70
59923;DHT22;45778;51.142;3.732;2023-04-05T09:11:14;10.20;86.00
59923;DHT22;45778;51.142;3.732;2023-04-05T09:13:41;10.20;85.40
59923;DHT22;45778;51.142;3.732;2023-04-05T09:16:06;10.40;83.60
59923;DHT22;45778;51.142;3.732;2023-04-05T09:18:32;10.60;85.00
59923;DHT22;45778;51.142;3.732;2023-04-05T09:21:02;10.70;87.30
59923;DHT22;45778;51.142;3.732;2023-04-05T09:23:29;10.60;86.40
59923;DHT22;45778;51.142;3.732;2023-04-05T09:25:54;10.70;85.50
59923;DHT22;45778;51.142;3.732;2023-04-05T09:28:20;11.00;84.40
59923;DHT22;45778;51.142;3.732;2023-04-05T09:30:46;11.00;83.90
59923;DHT22;45778;51.142;3.732;2023-04-05T09:33:15;11.00;84.80
59923;DHT22;45778;51.142;3.732;2023-04-05T09:35:43;11.20;83.50
59923;DHT22;45778;51.142;3.732;2023-04-05T09:38:09;11.30;84.60
59923;DHT22;45778;51.142;3.732;2023-04-05T09:40:47;11.60;84.00
59923;DHT22;45778;51.142;3.732;2023-04-05T09:46:02;11.50;82.70
59923;DHT22;45778;51.142;3.732;2023-04-05T09:48:47;11.50;82.40
59923;DHT22;45778;51.142;3.732;2023-04-05T09:51:14;11.20;80.40
59923;DHT22;45778;51.142;3.732;2023-04-05T09:54:01;11.20;82.30
59923;DHT22;45778;51.142;3.732;2023-04-05T09:56:28;11.40;82.80
59923;DHT22;45778;51.142;3.732;2023-04-05T09:59:08;11.50;82.20
59923;DHT22;45778;51.142;3.732;2023-04-05T10:01:35;11.50;80.70
59923;DHT22;45778;51.142;3.732;2023-04-05T10:04:01;11.60;81.50
59923;DHT22;45778;51.142;3.732;2023-04-05T10:06:38;11.90;81.30
59923;DHT22;45778;51.142;3.732;2023-04-05T10:09:05;12.00;81.40
59923;DHT22;45778;51.142;3.732;2023-04-05T10:11:33;12.10;82.00
59923;DHT22;45778;51.142;3.732;2023-04-05T10:14:07;12.30;82.20
59923;DHT22;45778;51.142;3.732;2023-04-05T10:16:37;12.30;80.60
59923;DHT22;45778;51.142;3.732;2023-04-05T10:19:19;12.10;81.00
59923;DHT22;45778;51.142;3.732;2023-04-05T10:21:47;11.90;82.00
59923;DHT22;45778;51.142;3.732;2023-04-05T10:24:28;11.80;81.70
59923;DHT22;45778;51.142;3.732;2023-04-05T10:27:08;12.10;82.30
59923;DHT22;45778;51.142;3.732;2023-04-05T10:29:45;12.00;82.10
59923;DHT22;45778;51.142;3.732;2023-04-05T10:32:29;11.90;81.40
59923;DHT22;45778;51.142;3.732;2023-04-05T10:35:16;12.10;81.00
59923;DHT22;45778;51.142;3.732;2023-04-05T10:38:11;12.20;82.30
59923;DHT22;45778;51.142;3.732;2023-04-05T10:40:37;12.10;79.60
59923;DHT22;45778;51.142;3.732;2023-04-05T10:43:07;12.00;79.70
59923;DHT22;45778;51.142;3.732;2023-04-05T10:45:40;12.10;80.50
59923;DHT22;45778;51.142;3.732;2023-04-05T10:48:42;12.40;79.60
59923;DHT22;45778;51.142;3.732;2023-04-05T10:51:11;12.60;79.80
59923;DHT22;45778;51.142;3.732;2023-04-05T10:53:38;12.70;78.60
59923;DHT22;45778;51.142;3.732;2023-04-05T10:56:05;12.80;79.40
59923;DHT22;45778;51.142;3.732;2023-04-05T10:58:34;12.40;80.30
59923;DHT22;45778;51.142;3.732;2023-04-05T11:01:00;12.10;78.60
59923;DHT22;45778;51.142;3.732;2023-04-05T11:03:49;12.10;79.60
59923;DHT22;45778;51.142;3.732;2023-04-05T11:06:31;12.10;78.10
59923;DHT22;45778;51.142;3.732;2023-04-05T11:09:00;12.20;79.40
59923;DHT22;45778;51.142;3.732;2023-04-05T11:11:38;12.20;78.60
59923;DHT22;45778;51.142;3.732;2023-04-05T11:16:50;12.70;77.90
59923;DHT22;45778;51.142;3.732;2023-04-05T11:19:19;12.80;78.30
59923;DHT22;45778;51.142;3.732;2023-04-05T11:21:45;13.00;79.20
59923;DHT22;45778;51.142;3.732;2023-04-05T11:24:12;12.70;77.60
59923;DHT22;45778;51.142;3.732;2023-04-05T11:29:14;12.80;76.60
59923;DHT22;45778;51.142;3.732;2023-04-05T11:32:00;12.70;76.50
59923;DHT22;45778;51.142;3.732;2023-04-05T11:34:35;13.00;75.80
59923;DHT22;45778;51.142;3.732;2023-04-05T11:37:00;13.30;74.40
59923;DHT22;45778;51.142;3.732;2023-04-05T11:39:27;13.50;76.00
59923;DHT22;45778;51.142;3.732;2023-04-05T11:44:27;13.70;73.20
59923;DHT22;45778;51.142;3.732;2023-04-05T11:46:54;13.40;73.70
59923;DHT22;45778;51.142;3.732;2023-04-05T11:49:24;13.60;74.40
59923;DHT22;45778;51.142;3.732;2023-04-05T11:51:51;13.70;75.20
59923;DHT22;45778;51.142;3.732;2023-04-05T11:54:33;13.80;75.40
59923;DHT22;45778;51.142;3.732;2023-04-05T11:56:59;14.00;74.20
59923;DHT22;45778;51.142;3.732;2023-04-05T11:59:32;14.10;75.50
59923;DHT22;45778;51.142;3.732;2023-04-05T12:02:03;14.30;75.40
59923;DHT22;45778;51.142;3.732;2023-04-05T12:04:31;14.70;74.60
59923;DHT22;45778;51.142;3.732;2023-04-05T12:07:15;15.40;72.50
59923;DHT22;45778;51.142;3.732;2023-04-05T12:10:04;15.70;71.20
59923;DHT22;45778;51.142;3.732;2023-04-05T12:12:39;16.30;70.90
59923;DHT22;45778;51.142;3.732;2023-04-05T12:15:08;16.30;69.80
59923;DHT22;45778;51.142;3.732;2023-04-05T12:17:42;16.70;68.40
59923;DHT22;45778;51.142;3.732;2023-04-05T12:20:10;16.60;66.50
59923;DHT22;45778;51.142;3.732;2023-04-05T12:22:37;17.10;65.40
59923;DHT22;45778;51.142;3.732;2023-04-05T12:25:03;18.50;62.40
59923;DHT22;45778;51.142;3.732;2023-04-05T12:27:29;19.10;59.70
59923;DHT22;45778;51.142;3.732;2023-04-05T12:30:16;19.70;59.70
59923;DHT22;45778;51.142;3.732;2023-04-05T12:32:45;19.60;57.40
59923;DHT22;45778;51.142;3.732;2023-04-05T12:37:52;20.20;56.20
59923;DHT22;45778;51.142;3.732;2023-04-05T12:40:23;21.10;55.70
59923;DHT22;45778;51.142;3.732;2023-04-05T12:42:50;22.20;53.80
59923;DHT22;45778;51.142;3.732;2023-04-05T12:45:16;22.70;54.70
59923;DHT22;45778;51.142;3.732;2023-04-05T12:47:59;24.00;51.90
59923;DHT22;45778;51.142;3.732;2023-04-05T12:50:29;23.90;51.40
59923;DHT22;45778;51.142;3.732;2023-04-05T12:53:05;23.80;50.20
59923;DHT22;45778;51.142;3.732;2023-04-05T12:55:31;23.30;51.60
59923;DHT22;45778;51.142;3.732;2023-04-05T12:57:59;24.20;49.40
59923;DHT22;45778;51.142;3.732;2023-04-05T13:00:27;24.80;49.00
59923;DHT22;45778;51.142;3.732;2023-04-05T13:02:55;24.70;46.60
59923;DHT22;45778;51.142;3.732;2023-04-05T13:05:28;24.60;48.00
59923;DHT22;45778;51.142;3.732;2023-04-05T13:07:55;23.50;47.00
59923;DHT22;45778;51.142;3.732;2023-04-05T13:10:22;23.60;48.60
59923;DHT22;45778;51.142;3.732;2023-04-05T13:12:48;23.90;47.10
59923;DHT22;45778;51.142;3.732;2023-04-05T13:15:15;22.10;49.30
59923;DHT22;45778;51.142;3.732;2023-04-05T13:17:42;23.10;49.70
59923;DHT22;45778;51.142;3.732;2023-04-05T13:20:10;22.80;46.20
59923;DHT22;45778;51.142;3.732;2023-04-05T13:22:36;21.10;49.10
59923;DHT22;45778;51.142;3.732;2023-04-05T13:25:02;21.30;48.60
59923;DHT22;45778;51.142;3.732;2023-04-05T13:27:28;21.30;48.20
59923;DHT22;45778;51.142;3.732;2023-04-05T13:29:54;21.80;49.40
59923;DHT22;45778;51.142;3.732;2023-04-05T13:32:19;23.40;48.10
59923;DHT22;45778;51.142;3.732;2023-04-05T13:34:45;24.40;46.30
59923;DHT22;45778;51.142;3.732;2023-04-05T13:37:11;24.30;45.80
59923;DHT22;45778;51.142;3.732;2023-04-05T13:39:37;23.40;47.20
59923;DHT22;45778;51.142;3.732;2023-04-05T13:42:02;24.20;47.30
59923;DHT22;45778;51.142;3.732;2023-04-05T13:44:28;23.40;46.40
59923;DHT22;45778;51.142;3.732;2023-04-05T13:46:54;22.50;47.50
59923;DHT22;45778;51.142;3.732;2023-04-05T13:49:19;22.30;47.10
59923;DHT22;45778;51.142;3.732;2023-04-05T13:51:45;22.80;48.00
59923;DHT22;45778;51.142;3.732;2023-04-05T13:54:11;24.20;46.40
59923;DHT22;45778;51.142;3.732;2023-04-05T13:56:37;26.20;44.80
59923;DHT22;45778;51.142;3.732;2023-04-05T13:59:03;26.40;43.30
59923;DHT22;45778;51.142;3.732;2023-04-05T14:01:29;27.40;44.00
59923;DHT22;45778;51.142;3.732;2023-04-05T14:03:54;26.90;43.90
59923;DHT22;45778;51.142;3.732;2023-04-05T14:06:20;26.40;43.50
59923;DHT22;45778;51.142;3.732;2023-04-05T14:08:46;26.90;43.00
59923;DHT22;45778;51.142;3.732;2023-04-05T14:11:12;27.40;43.80
59923;DHT22;45778;51.142;3.732;2023-04-05T14:13:38;27.80;42.90
59923;DHT22;45778;51.142;3.732;2023-04-05T14:16:03;26.50;43.10
59923;DHT22;45778;51.142;3.732;2023-04-05T14:18:30;25.90;43.90
59923;DHT22;45778;51.142;3.732;2023-04-05T14:20:56;25.00;44.20
59923;DHT22;45778;51.142;3.732;2023-04-05T14:23:22;25.60;42.50
59923;DHT22;45778;51.142;3.732;2023-04-05T14:25:48;25.60;43.30
59923;DHT22;45778;51.142;3.732;2023-04-05T14:28:13;26.00;43.40
59923;DHT22;45778;51.142;3.732;2023-04-05T14:30:39;26.00;43.70
59923;DHT22;45778;51.142;3.732;2023-04-05T14:33:05;24.00;44.40
59923;DHT22;45778;51.142;3.732;2023-04-05T14:35:31;24.10;45.80
59923;DHT22;45778;51.142;3.732;2023-04-05T14:37:56;25.30;43.90
59923;DHT22;45778;51.142;3.732;2023-04-05T14:40:22;26.10;42.70
59923;DHT22;45778;51.142;3.732;2023-04-05T14:42:48;26.30;42.30
59923;DHT22;45778;51.142;3.732;2023-04-05T14:45:13;26.30;42.20
59923;DHT22;45778;51.142;3.732;2023-04-05T14:47:39;26.50;41.30
59923;DHT22;45778;51.142;3.732;2023-04-05T14:50:05;26.30;41.90
59923;DHT22;45778;51.142;3.732;2023-04-05T14:52:34;25.20;41.70
59923;DHT22;45778;51.142;3.732;2023-04-05T14:54:59;25.30;43.40
59923;DHT22;45778;51.142;3.732;2023-04-05T14:57:25;24.50;43.10
59923;DHT22;45778;51.142;3.732;2023-04-05T14:59:51;24.20;44.10
59923;DHT22;45778;51.142;3.732;2023-04-05T15:02:16;23.60;45.00
59923;DHT22;45778;51.142;3.732;2023-04-05T15:04:42;23.60;44.40
59923;DHT22;45778;51.142;3.732;2023-04-05T15:07:08;22.80;45.90
59923;DHT22;45778;51.142;3.732;2023-04-05T15:09:34;22.80;44.60
59923;DHT22;45778;51.142;3.732;2023-04-05T15:12:00;23.20;43.00
59923;DHT22;45778;51.142;3.732;2023-04-05T15:14:26;24.50;42.60
59923;DHT22;45778;51.142;3.732;2023-04-05T15:16:52;25.30;41.80
59923;DHT22;45778;51.142;3.732;2023-04-05T15:19:18;26.20;42.60
59923;DHT22;45778;51.142;3.732;2023-04-05T15:21:43;26.70;41.60
59923;DHT22;45778;51.142;3.732;2023-04-05T15:24:10;27.10;41.50
59923;DHT22;45778;51.142;3.732;2023-04-05T15:26:36;26.90;40.30
59923;DHT22;45778;51.142;3.732;2023-04-05T15:29:01;26.20;39.90
59923;DHT22;45778;51.142;3.732;2023-04-05T15:31:27;25.40;42.30
59923;DHT22;45778;51.142;3.732;2023-04-05T15:33:53;25.50;41.70
59923;DHT22;45778;51.142;3.732;2023-04-05T15:36:18;25.50;42.30
59923;DHT22;45778;51.142;3.732;2023-04-05T15:38:44;25.20;42.80
59923;DHT22;45778;51.142;3.732;2023-04-05T15:41:10;26.30;42.70
59923;DHT22;45778;51.142;3.732;2023-04-05T15:43:36;26.10;41.20
59923;DHT22;45778;51.142;3.732;2023-04-05T15:46:02;25.70;40.90
59923;DHT22;45778;51.142;3.732;2023-04-05T15:48:29;24.50;40.90
59923;DHT22;45778;51.142;3.732;2023-04-05T15:50:55;23.40;40.90
59923;DHT22;45778;51.142;3.732;2023-04-05T15:53:20;22.80;44.20
59923;DHT22;45778;51.142;3.732;2023-04-05T15:55:46;23.70;44.60
59923;DHT22;45778;51.142;3.732;2023-04-05T15:58:12;24.30;43.00
59923;DHT22;45778;51.142;3.732;2023-04-05T16:00:38;24.50;41.60
59923;DHT22;45778;51.142;3.732;2023-04-05T16:03:04;25.40;41.50
59923;DHT22;45778;51.142;3.732;2023-04-05T16:05:29;26.90;41.40
59923;DHT22;45778;51.142;3.732;2023-04-05T16:07:56;26.80;40.70
59923;DHT22;45778;51.142;3.732;2023-04-05T16:10:22;27.70;41.30